sensor_id;sensor_type;location;lat;lon;timestamp;P1;durP1;ratioP1;P2;durP2;ratioP2
3321;SDS011;1673;51.388;7.086;2023-07-02T00:02:23;10.23;;;4.18;;
3321;SDS011;1673;51.388;7.086;2023-07-02T00:04:56;10.50;;;4.80;;
3321;SDS011;1673;51.388;7.086;2023-07-02T00:07:25;9.13;;;4.10;;
3321;SDS011;1673;51.388;7.086;2023-07-02T00:09:55;11.32;;;4.35;;
3321;SDS011;1673;51.388;7.086;2023-07-02T00:12:25;9.48;;;4.80;;
3321;SDS011;1673;51.388;7.086;2023-07-02T00:14:55;8.13;;;3.92;;
3321;SDS011;1673;51.388;7.086;2023-07-02T00:17:24;10.10;;;4.30;;
3321;SDS011;1673;51.388;7.086;2023-07-02T00:19:57;13.20;;;4.50;;
3321;SDS011;1673;51.388;7.086;2023-07-02T00:22:29;9.40;;;4.20;;
3321;SDS011;1673;51.388;7.086;2023-07-02T00:25:02;13.70;;;4.83;;
3321;SDS011;1673;51.388;7.086;2023-07-02T00:27:33;12.48;;;5.00;;
3321;SDS011;1673;51.388;7.086;2023-07-02T00:30:04;8.75;;;4.55;;
3321;SDS011;1673;51.388;7.086;2023-07-02T00:32:35;13.68;;;4.88;;
3321;SDS011;1673;51.388;7.086;2023-07-02T00:35:08;9.55;;;4.90;;
3321;SDS011;1673;51.388;7.086;2023-07-02T00:37:37;10.45;;;4.82;;
3321;SDS011;1673;51.388;7.086;2023-07-02T00:40:08;11.50;;;4.90;;
3321;SDS011;1673;51.388;7.086;2023-07-02T00:42:39;9.90;;;4.15;;
3321;SDS011;1673;51.388;7.086;2023-07-02T00:45:09;10.60;;;4.55;;
3321;SDS011;1673;51.388;7.086;2023-07-02T00:47:39;12.82;;;5.20;;
3321;SDS011;1673;51.388;7.086;2023-07-02T00:50:12;12.13;;;5.20;;
3321;SDS011;1673;51.388;7.086;2023-07-02T00:52:42;13.63;;;4.85;;
3321;SDS011;1673;51.388;7.086;2023-07-02T00:55:12;11.35;;;4.80;;
3321;SDS011;1673;51.388;7.086;2023-07-02T00:57:42;10.35;;;5.00;;
3321;SDS011;1673;51.388;7.086;2023-07-02T01:00:13;12.50;;;5.20;;
3321;SDS011;1673;51.388;7.086;2023-07-02T01:02:43;12.98;;;5.82;;
3321;SDS011;1673;51.388;7.086;2023-07-02T01:05:28;13.25;;;5.28;;
3321;SDS011;1673;51.388;7.086;2023-07-02T01:08:02;13.70;;;5.10;;
3321;SDS011;1673;51.388;7.086;2023-07-02T01:10:32;10.67;;;5.20;;
3321;SDS011;1673;51.388;7.086;2023-07-02T01:13:04;11.98;;;5.32;;
3321;SDS011;1673;51.388;7.086;2023-07-02T01:15:37;15.33;;;5.20;;
3321;SDS011;1673;51.388;7.086;2023-07-02T01:18:07;10.27;;;4.90;;
3321;SDS011;1673;51.388;7.086;2023-07-02T01:20:40;11.05;;;5.25;;
3321;SDS011;1673;51.388;7.086;2023-07-02T01:23:11;14.75;;;4.80;;
3321;SDS011;1673;51.388;7.086;2023-07-02T01:25:41;14.63;;;5.28;;
3321;SDS011;1673;51.388;7.086;2023-07-02T01:28:11;15.98;;;5.80;;
3321;SDS011;1673;51.388;7.086;2023-07-02T01:30:42;15.68;;;5.10;;
3321;SDS011;1673;51.388;7.086;2023-07-02T01:33:13;14.48;;;5.25;;
3321;SDS011;1673;51.388;7.086;2023-07-02T01:35:46;12.55;;;5.60;;
3321;SDS011;1673;51.388;7.086;2023-07-02T01:38:16;13.65;;;5.28;;
3321;SDS011;1673;51.388;7.086;2023-07-02T01:40:46;13.70;;;5.40;;
3321;SDS011;1673;51.388;7.086;2023-07-02T01:43:16;14.40;;;5.35;;
3321;SDS011;1673;51.388;7.086;2023-07-02T01:45:45;12.45;;;5.28;;
3321;SDS011;1673;51.388;7.086;2023-07-02T01:48:15;11.88;;;5.07;;
3321;SDS011;1673;51.388;7.086;2023-07-02T01:50:49;14.75;;;5.40;;
3321;SDS011;1673;51.388;7.086;2023-07-02T01:53:19;15.40;;;5.57;;
3321;SDS011;1673;51.388;7.086;2023-07-02T01:55:49;18.75;;;5.88;;
3321;SDS011;1673;51.388;7.086;2023-07-02T01:58:18;12.10;;;5.10;;
3321;SDS011;1673;51.388;7.086;2023-07-02T02:00:48;14.73;;;5.55;;
3321;SDS011;1673;51.388;7.086;2023-07-02T02:03:18;17.10;;;6.03;;
3321;SDS011;1673;51.388;7.086;2023-07-02T02:05:51;15.23;;;6.00;;
3321;SDS011;1673;51.388;7.086;2023-07-02T02:08:20;20.60;;;6.45;;
3321;SDS011;1673;51.388;7.086;2023-07-02T02:10:50;18.10;;;6.57;;
3321;SDS011;1673;51.388;7.086;2023-07-02T02:13:20;16.20;;;6.45;;
3321;SDS011;1673;51.388;7.086;2023-07-02T02:15:51;21.00;;;6.75;;
3321;SDS011;1673;51.388;7.086;2023-07-02T02:18:21;16.10;;;6.70;;
3321;SDS011;1673;51.388;7.086;2023-07-02T02:20:54;16.33;;;6.97;;
3321;SDS011;1673;51.388;7.086;2023-07-02T02:23:24;22.27;;;7.33;;
3321;SDS011;1673;51.388;7.086;2023-07-02T02:25:54;17.80;;;7.15;;
3321;SDS011;1673;51.388;7.086;2023-07-02T02:28:23;19.17;;;7.57;;
3321;SDS011;1673;51.388;7.086;2023-07-02T02:30:53;20.25;;;7.47;;
3321;SDS011;1673;51.388;7.086;2023-07-02T02:33:23;17.92;;;7.50;;
3321;SDS011;1673;51.388;7.086;2023-07-02T02:35:56;19.38;;;8.00;;
3321;SDS011;1673;51.388;7.086;2023-07-02T02:38:25;23.30;;;8.87;;
3321;SDS011;1673;51.388;7.086;2023-07-02T02:40:55;22.02;;;8.23;;
3321;SDS011;1673;51.388;7.086;2023-07-02T02:43:25;24.07;;;8.70;;
3321;SDS011;1673;51.388;7.086;2023-07-02T02:45:55;19.25;;;8.90;;
3321;SDS011;1673;51.388;7.086;2023-07-02T02:48:26;24.80;;;9.35;;
3321;SDS011;1673;51.388;7.086;2023-07-02T02:50:58;25.58;;;9.02;;
3321;SDS011;1673;51.388;7.086;2023-07-02T02:53:28;23.45;;;8.95;;
3321;SDS011;1673;51.388;7.086;2023-07-02T02:55:58;23.25;;;9.98;;
3321;SDS011;1673;51.388;7.086;2023-07-02T02:58:28;23.47;;;9.00;;
3321;SDS011;1673;51.388;7.086;2023-07-02T03:00:57;25.42;;;9.75;;
3321;SDS011;1673;51.388;7.086;2023-07-02T03:03:27;26.03;;;9.43;;
3321;SDS011;1673;51.388;7.086;2023-07-02T03:06:03;19.38;;;9.50;;
3321;SDS011;1673;51.388;7.086;2023-07-02T03:08:33;29.80;;;9.90;;
3321;SDS011;1673;51.388;7.086;2023-07-02T03:11:03;25.88;;;10.10;;
3321;SDS011;1673;51.388;7.086;2023-07-02T03:13:32;28.63;;;9.10;;
3321;SDS011;1673;51.388;7.086;2023-07-02T03:16:03;24.00;;;9.95;;
3321;SDS011;1673;51.388;7.086;2023-07-02T03:18:34;23.00;;;9.52;;
3321;SDS011;1673;51.388;7.086;2023-07-02T03:21:08;24.52;;;10.75;;
3321;SDS011;1673;51.388;7.086;2023-07-02T03:23:38;25.52;;;9.82;;
3321;SDS011;1673;51.388;7.086;2023-07-02T03:26:08;30.00;;;10.70;;
3321;SDS011;1673;51.388;7.086;2023-07-02T03:28:37;26.38;;;10.90;;
3321;SDS011;1673;51.388;7.086;2023-07-02T03:31:07;25.40;;;10.40;;
3321;SDS011;1673;51.388;7.086;2023-07-02T03:33:37;24.27;;;10.90;;
3321;SDS011;1673;51.388;7.086;2023-07-02T03:36:09;29.55;;;10.73;;
3321;SDS011;1673;51.388;7.086;2023-07-02T03:38:39;27.95;;;11.18;;
3321;SDS011;1673;51.388;7.086;2023-07-02T03:41:09;29.45;;;10.25;;
3321;SDS011;1673;51.388;7.086;2023-07-02T03:43:38;32.80;;;11.95;;
3321;SDS011;1673;51.388;7.086;2023-07-02T03:46:08;28.88;;;11.00;;
3321;SDS011;1673;51.388;7.086;2023-07-02T03:48:38;28.00;;;11.20;;
3321;SDS011;1673;51.388;7.086;2023-07-02T03:51:10;29.42;;;11.40;;
3321;SDS011;1673;51.388;7.086;2023-07-02T03:53:41;27.10;;;11.13;;
3321;SDS011;1673;51.388;7.086;2023-07-02T03:56:11;31.17;;;12.00;;
3321;SDS011;1673;51.388;7.086;2023-07-02T03:58:41;28.80;;;11.70;;
3321;SDS011;1673;51.388;7.086;2023-07-02T04:01:11;32.85;;;12.50;;
3321;SDS011;1673;51.388;7.086;2023-07-02T04:03:47;28.27;;;12.03;;
3321;SDS011;1673;51.388;7.086;2023-07-02T04:06:20;31.05;;;11.93;;
3321;SDS011;1673;51.388;7.086;2023-07-02T04:08:50;30.10;;;12.95;;
3321;SDS011;1673;51.388;7.086;2023-07-02T04:11:19;39.20;;;12.55;;
3321;SDS011;1673;51.388;7.086;2023-07-02T04:13:49;31.88;;;13.63;;
3321;SDS011;1673;51.388;7.086;2023-07-02T04:16:19;41.70;;;13.23;;
3321;SDS011;1673;51.388;7.086;2023-07-02T04:18:49;33.17;;;12.85;;
3321;SDS011;1673;51.388;7.086;2023-07-02T04:21:21;33.97;;;13.77;;
3321;SDS011;1673;51.388;7.086;2023-07-02T04:23:51;35.95;;;13.32;;
3321;SDS011;1673;51.388;7.086;2023-07-02T04:26:21;32.92;;;13.95;;
3321;SDS011;1673;51.388;7.086;2023-07-02T04:29:13;32.22;;;14.07;;
3321;SDS011;1673;51.388;7.086;2023-07-02T04:31:43;32.80;;;13.32;;
3321;SDS011;1673;51.388;7.086;2023-07-02T04:34:12;34.72;;;15.18;;
3321;SDS011;1673;51.388;7.086;2023-07-02T04:36:45;35.65;;;13.07;;
3321;SDS011;1673;51.388;7.086;2023-07-02T04:39:19;32.38;;;12.52;;
3321;SDS011;1673;51.388;7.086;2023-07-02T04:41:49;34.95;;;13.77;;
3321;SDS011;1673;51.388;7.086;2023-07-02T04:44:19;32.22;;;14.80;;
3321;SDS011;1673;51.388;7.086;2023-07-02T04:46:56;34.05;;;13.68;;
3321;SDS011;1673;51.388;7.086;2023-07-02T04:49:27;38.95;;;14.98;;
3321;SDS011;1673;51.388;7.086;2023-07-02T04:51:59;36.03;;;13.93;;
3321;SDS011;1673;51.388;7.086;2023-07-02T04:54:29;35.22;;;14.35;;
3321;SDS011;1673;51.388;7.086;2023-07-02T04:56:59;37.43;;;14.37;;
3321;SDS011;1673;51.388;7.086;2023-07-02T04:59:29;32.15;;;13.70;;
3321;SDS011;1673;51.388;7.086;2023-07-02T05:01:59;38.37;;;13.53;;
3321;SDS011;1673;51.388;7.086;2023-07-02T05:04:28;33.72;;;13.95;;
3321;SDS011;1673;51.388;7.086;2023-07-02T05:07:02;32.73;;;13.30;;
3321;SDS011;1673;51.388;7.086;2023-07-02T05:09:32;37.55;;;13.50;;
3321;SDS011;1673;51.388;7.086;2023-07-02T05:12:02;34.10;;;14.75;;
3321;SDS011;1673;51.388;7.086;2023-07-02T05:14:32;36.80;;;15.20;;
3321;SDS011;1673;51.388;7.086;2023-07-02T05:17:02;33.72;;;14.98;;
3321;SDS011;1673;51.388;7.086;2023-07-02T05:19:33;36.25;;;15.32;;
3321;SDS011;1673;51.388;7.086;2023-07-02T05:22:05;42.17;;;15.30;;
3321;SDS011;1673;51.388;7.086;2023-07-02T05:24:35;44.45;;;16.77;;
3321;SDS011;1673;51.388;7.086;2023-07-02T05:27:07;37.17;;;14.65;;
3321;SDS011;1673;51.388;7.086;2023-07-02T05:29:37;41.95;;;16.08;;
3321;SDS011;1673;51.388;7.086;2023-07-02T05:32:07;39.08;;;16.23;;
3321;SDS011;1673;51.388;7.086;2023-07-02T05:34:36;37.60;;;15.57;;
3321;SDS011;1673;51.388;7.086;2023-07-02T05:37:09;38.63;;;16.33;;
3321;SDS011;1673;51.388;7.086;2023-07-02T05:39:38;36.50;;;15.10;;
3321;SDS011;1673;51.388;7.086;2023-07-02T05:42:08;40.70;;;18.25;;
3321;SDS011;1673;51.388;7.086;2023-07-02T05:44:38;45.55;;;17.77;;
3321;SDS011;1673;51.388;7.086;2023-07-02T05:47:08;41.55;;;17.00;;
3321;SDS011;1673;51.388;7.086;2023-07-02T05:49:38;45.10;;;17.73;;
3321;SDS011;1673;51.388;7.086;2023-07-02T05:52:10;41.40;;;16.70;;
3321;SDS011;1673;51.388;7.086;2023-07-02T05:54:40;44.10;;;16.60;;
3321;SDS011;1673;51.388;7.086;2023-07-02T05:57:10;38.53;;;16.83;;
3321;SDS011;1673;51.388;7.086;2023-07-02T05:59:39;40.88;;;16.10;;
3321;SDS011;1673;51.388;7.086;2023-07-02T06:02:09;42.20;;;16.05;;
3321;SDS011;1673;51.388;7.086;2023-07-02T06:04:39;49.15;;;19.08;;
3321;SDS011;1673;51.388;7.086;2023-07-02T06:07:11;36.42;;;16.17;;
3321;SDS011;1673;51.388;7.086;2023-07-02T06:09:41;39.45;;;17.20;;
3321;SDS011;1673;51.388;7.086;2023-07-02T06:12:11;40.50;;;17.27;;
3321;SDS011;1673;51.388;7.086;2023-07-02T06:14:41;43.53;;;17.55;;
3321;SDS011;1673;51.388;7.086;2023-07-02T06:17:11;42.97;;;17.58;;
3321;SDS011;1673;51.388;7.086;2023-07-02T06:19:41;44.58;;;17.50;;
3321;SDS011;1673;51.388;7.086;2023-07-02T06:22:16;43.35;;;16.27;;
3321;SDS011;1673;51.388;7.086;2023-07-02T06:24:46;43.63;;;17.25;;
3321;SDS011;1673;51.388;7.086;2023-07-02T06:27:15;41.65;;;17.52;;
3321;SDS011;1673;51.388;7.086;2023-07-02T06:29:45;41.60;;;17.08;;
3321;SDS011;1673;51.388;7.086;2023-07-02T06:32:16;40.03;;;17.33;;
3321;SDS011;1673;51.388;7.086;2023-07-02T06:34:46;35.33;;;15.90;;
3321;SDS011;1673;51.388;7.086;2023-07-02T06:37:18;42.08;;;16.13;;
3321;SDS011;1673;51.388;7.086;2023-07-02T06:39:48;38.85;;;16.42;;
3321;SDS011;1673;51.388;7.086;2023-07-02T06:42:18;42.45;;;17.48;;
3321;SDS011;1673;51.388;7.086;2023-07-02T06:44:47;41.72;;;16.17;;
3321;SDS011;1673;51.388;7.086;2023-07-02T06:47:17;34.28;;;15.23;;
3321;SDS011;1673;51.388;7.086;2023-07-02T06:49:47;45.10;;;16.17;;
3321;SDS011;1673;51.388;7.086;2023-07-02T06:52:19;33.80;;;15.02;;
3321;SDS011;1673;51.388;7.086;2023-07-02T06:54:49;43.17;;;15.32;;
3321;SDS011;1673;51.388;7.086;2023-07-02T06:57:19;38.85;;;14.40;;
3321;SDS011;1673;51.388;7.086;2023-07-02T06:59:50;35.05;;;13.38;;
3321;SDS011;1673;51.388;7.086;2023-07-02T07:02:19;39.15;;;14.65;;
3321;SDS011;1673;51.388;7.086;2023-07-02T07:04:49;34.72;;;15.07;;
3321;SDS011;1673;51.388;7.086;2023-07-02T07:07:21;33.78;;;15.18;;
3321;SDS011;1673;51.388;7.086;2023-07-02T07:09:51;34.22;;;13.75;;
3321;SDS011;1673;51.388;7.086;2023-07-02T07:12:21;39.28;;;13.75;;
3321;SDS011;1673;51.388;7.086;2023-07-02T07:14:51;36.25;;;13.80;;
3321;SDS011;1673;51.388;7.086;2023-07-02T07:17:21;34.35;;;12.48;;
3321;SDS011;1673;51.388;7.086;2023-07-02T07:19:50;35.63;;;13.77;;
3321;SDS011;1673;51.388;7.086;2023-07-02T07:22:23;37.10;;;13.65;;
3321;SDS011;1673;51.388;7.086;2023-07-02T07:24:53;32.75;;;13.60;;
3321;SDS011;1673;51.388;7.086;2023-07-02T07:27:22;39.60;;;13.55;;
3321;SDS011;1673;51.388;7.086;2023-07-02T07:29:52;34.08;;;13.30;;
3321;SDS011;1673;51.388;7.086;2023-07-02T07:32:22;38.33;;;13.30;;
3321;SDS011;1673;51.388;7.086;2023-07-02T07:34:52;31.67;;;13.15;;
3321;SDS011;1673;51.388;7.086;2023-07-02T07:37:24;31.08;;;12.23;;
3321;SDS011;1673;51.388;7.086;2023-07-02T07:39:54;33.33;;;14.27;;
3321;SDS011;1673;51.388;7.086;2023-07-02T07:42:24;30.85;;;13.07;;
3321;SDS011;1673;51.388;7.086;2023-07-02T07:44:54;30.45;;;13.38;;
3321;SDS011;1673;51.388;7.086;2023-07-02T07:47:23;28.40;;;12.80;;
3321;SDS011;1673;51.388;7.086;2023-07-02T07:49:53;26.35;;;12.13;;
3321;SDS011;1673;51.388;7.086;2023-07-02T07:52:26;36.65;;;13.57;;
3321;SDS011;1673;51.388;7.086;2023-07-02T07:54:56;32.78;;;12.68;;
3321;SDS011;1673;51.388;7.086;2023-07-02T07:57:26;32.20;;;12.70;;
3321;SDS011;1673;51.388;7.086;2023-07-02T07:59:56;33.63;;;13.17;;
3321;SDS011;1673;51.388;7.086;2023-07-02T08:02:25;30.80;;;13.05;;
3321;SDS011;1673;51.388;7.086;2023-07-02T08:04:55;30.27;;;12.83;;
3321;SDS011;1673;51.388;7.086;2023-07-02T08:07:28;29.77;;;11.38;;
3321;SDS011;1673;51.388;7.086;2023-07-02T08:09:58;27.98;;;11.55;;
3321;SDS011;1673;51.388;7.086;2023-07-02T08:12:29;38.60;;;12.77;;
3321;SDS011;1673;51.388;7.086;2023-07-02T08:14:59;28.92;;;11.82;;
3321;SDS011;1673;51.388;7.086;2023-07-02T08:17:28;26.08;;;12.02;;
3321;SDS011;1673;51.388;7.086;2023-07-02T08:19:59;33.00;;;12.27;;
3321;SDS011;1673;51.388;7.086;2023-07-02T08:22:33;33.03;;;12.07;;
3321;SDS011;1673;51.388;7.086;2023-07-02T08:25:04;28.45;;;10.98;;
3321;SDS011;1673;51.388;7.086;2023-07-02T08:27:34;29.92;;;11.98;;
3321;SDS011;1673;51.388;7.086;2023-07-02T08:30:04;29.80;;;11.13;;
3321;SDS011;1673;51.388;7.086;2023-07-02T08:32:36;25.75;;;11.35;;
3321;SDS011;1673;51.388;7.086;2023-07-02T08:35:06;29.27;;;11.10;;
3321;SDS011;1673;51.388;7.086;2023-07-02T08:37:39;29.10;;;10.55;;
3321;SDS011;1673;51.388;7.086;2023-07-02T08:40:15;25.58;;;10.13;;
3321;SDS011;1673;51.388;7.086;2023-07-02T08:42:45;26.90;;;9.93;;
3321;SDS011;1673;51.388;7.086;2023-07-02T08:45:16;27.05;;;9.60;;
3321;SDS011;1673;51.388;7.086;2023-07-02T08:47:46;27.00;;;10.50;;
3321;SDS011;1673;51.388;7.086;2023-07-02T08:50:17;24.77;;;9.43;;
3321;SDS011;1673;51.388;7.086;2023-07-02T08:52:50;26.98;;;9.50;;
3321;SDS011;1673;51.388;7.086;2023-07-02T08:55:20;22.85;;;9.32;;
3321;SDS011;1673;51.388;7.086;2023-07-02T08:57:51;24.50;;;9.02;;
3321;SDS011;1673;51.388;7.086;2023-07-02T09:00:22;27.08;;;9.82;;
3321;SDS011;1673;51.388;7.086;2023-07-02T09:02:52;23.20;;;9.80;;
3321;SDS011;1673;51.388;7.086;2023-07-02T09:05:22;25.02;;;8.85;;
3321;SDS011;1673;51.388;7.086;2023-07-02T09:07:54;32.67;;;9.70;;
3321;SDS011;1673;51.388;7.086;2023-07-02T09:10:27;27.50;;;9.67;;
3321;SDS011;1673;51.388;7.086;2023-07-02T09:13:04;26.05;;;9.88;;
3321;SDS011;1673;51.388;7.086;2023-07-02T09:15:37;22.77;;;9.05;;
3321;SDS011;1673;51.388;7.086;2023-07-02T09:18:14;29.17;;;8.50;;
3321;SDS011;1673;51.388;7.086;2023-07-02T09:20:44;21.55;;;8.13;;
3321;SDS011;1673;51.388;7.086;2023-07-02T09:23:17;29.17;;;8.70;;
3321;SDS011;1673;51.388;7.086;2023-07-02T09:25:47;21.63;;;9.30;;
3321;SDS011;1673;51.388;7.086;2023-07-02T09:28:17;26.30;;;8.45;;
3321;SDS011;1673;51.388;7.086;2023-07-02T09:30:51;22.63;;;8.68;;
3321;SDS011;1673;51.388;7.086;2023-07-02T09:33:23;21.52;;;8.15;;
3321;SDS011;1673;51.388;7.086;2023-07-02T09:35:53;23.42;;;9.10;;
3321;SDS011;1673;51.388;7.086;2023-07-02T09:38:25;21.17;;;8.48;;
3321;SDS011;1673;51.388;7.086;2023-07-02T09:40:55;23.75;;;8.98;;
3321;SDS011;1673;51.388;7.086;2023-07-02T09:43:25;26.48;;;8.95;;
3321;SDS011;1673;51.388;7.086;2023-07-02T09:45:55;26.80;;;9.93;;
3321;SDS011;1673;51.388;7.086;2023-07-02T09:48:25;22.60;;;9.10;;
3321;SDS011;1673;51.388;7.086;2023-07-02T09:50:57;25.15;;;9.25;;
3321;SDS011;1673;51.388;7.086;2023-07-02T09:53:30;25.43;;;10.40;;
3321;SDS011;1673;51.388;7.086;2023-07-02T09:56:00;22.10;;;9.77;;
3321;SDS011;1673;51.388;7.086;2023-07-02T09:58:30;22.58;;;9.23;;
3321;SDS011;1673;51.388;7.086;2023-07-02T10:01:00;25.70;;;10.32;;
3321;SDS011;1673;51.388;7.086;2023-07-02T10:03:31;30.83;;;10.18;;
3321;SDS011;1673;51.388;7.086;2023-07-02T10:06:04;29.80;;;10.77;;
3321;SDS011;1673;51.388;7.086;2023-07-02T10:08:37;24.05;;;8.68;;
3321;SDS011;1673;51.388;7.086;2023-07-02T10:11:08;29.88;;;9.93;;
3321;SDS011;1673;51.388;7.086;2023-07-02T10:13:41;24.83;;;9.98;;
3321;SDS011;1673;51.388;7.086;2023-07-02T10:16:10;31.88;;;10.55;;
3321;SDS011;1673;51.388;7.086;2023-07-02T10:18:40;29.02;;;9.90;;
3321;SDS011;1673;51.388;7.086;2023-07-02T10:21:13;22.30;;;9.67;;
3321;SDS011;1673;51.388;7.086;2023-07-02T10:23:47;26.27;;;10.80;;
3321;SDS011;1673;51.388;7.086;2023-07-02T10:26:17;24.40;;;9.18;;
3321;SDS011;1673;51.388;7.086;2023-07-02T10:28:55;23.73;;;9.13;;
3321;SDS011;1673;51.388;7.086;2023-07-02T10:31:26;25.35;;;9.50;;
3321;SDS011;1673;51.388;7.086;2023-07-02T10:33:56;27.08;;;10.60;;
3321;SDS011;1673;51.388;7.086;2023-07-02T10:36:25;30.85;;;11.05;;
3321;SDS011;1673;51.388;7.086;2023-07-02T10:39:03;26.27;;;10.65;;
3321;SDS011;1673;51.388;7.086;2023-07-02T10:41:35;30.33;;;9.63;;
3321;SDS011;1673;51.388;7.086;2023-07-02T10:44:05;26.67;;;10.57;;
3321;SDS011;1673;51.388;7.086;2023-07-02T10:46:42;26.93;;;9.50;;
3321;SDS011;1673;51.388;7.086;2023-07-02T10:49:12;24.65;;;10.77;;
3321;SDS011;1673;51.388;7.086;2023-07-02T10:51:42;24.85;;;10.23;;
3321;SDS011;1673;51.388;7.086;2023-07-02T10:54:15;23.17;;;9.48;;
3321;SDS011;1673;51.388;7.086;2023-07-02T10:56:44;22.92;;;9.40;;
3321;SDS011;1673;51.388;7.086;2023-07-02T10:59:22;23.50;;;9.53;;
3321;SDS011;1673;51.388;7.086;2023-07-02T11:01:53;21.43;;;8.70;;
3321;SDS011;1673;51.388;7.086;2023-07-02T11:04:22;23.92;;;8.60;;
3321;SDS011;1673;51.388;7.086;2023-07-02T11:06:52;20.50;;;7.83;;
3321;SDS011;1673;51.388;7.086;2023-07-02T11:09:25;22.67;;;9.13;;
3321;SDS011;1673;51.388;7.086;2023-07-02T11:11:56;24.70;;;9.38;;
3321;SDS011;1673;51.388;7.086;2023-07-02T11:14:28;23.38;;;9.45;;
3321;SDS011;1673;51.388;7.086;2023-07-02T11:17:02;22.65;;;9.10;;
3321;SDS011;1673;51.388;7.086;2023-07-02T11:19:33;26.35;;;8.15;;
3321;SDS011;1673;51.388;7.086;2023-07-02T11:22:03;24.45;;;8.40;;
3321;SDS011;1673;51.388;7.086;2023-07-02T11:24:36;23.02;;;8.07;;
3321;SDS011;1673;51.388;7.086;2023-07-02T11:27:06;24.45;;;8.80;;
3321;SDS011;1673;51.388;7.086;2023-07-02T11:29:36;23.85;;;8.43;;
3321;SDS011;1673;51.388;7.086;2023-07-02T11:32:06;25.73;;;7.95;;
3321;SDS011;1673;51.388;7.086;2023-07-02T11:34:36;19.83;;;7.68;;
3321;SDS011;1673;51.388;7.086;2023-07-02T11:37:06;21.50;;;7.63;;
3321;SDS011;1673;51.388;7.086;2023-07-02T11:39:38;19.33;;;7.68;;
3321;SDS011;1673;51.388;7.086;2023-07-02T11:42:08;24.38;;;8.10;;
3321;SDS011;1673;51.388;7.086;2023-07-02T11:44:38;23.60;;;8.00;;
3321;SDS011;1673;51.388;7.086;2023-07-02T11:47:07;20.83;;;7.88;;
3321;SDS011;1673;51.388;7.086;2023-07-02T11:49:37;21.67;;;7.82;;
3321;SDS011;1673;51.388;7.086;2023-07-02T11:52:07;20.60;;;8.10;;
3321;SDS011;1673;51.388;7.086;2023-07-02T11:54:41;19.13;;;7.07;;
3321;SDS011;1673;51.388;7.086;2023-07-02T11:57:14;22.27;;;7.75;;
3321;SDS011;1673;51.388;7.086;2023-07-02T11:59:44;20.73;;;7.55;;
3321;SDS011;1673;51.388;7.086;2023-07-02T12:02:15;18.50;;;7.30;;
3321;SDS011;1673;51.388;7.086;2023-07-02T12:04:45;19.50;;;7.68;;
3321;SDS011;1673;51.388;7.086;2023-07-02T12:07:15;18.67;;;7.63;;
3321;SDS011;1673;51.388;7.086;2023-07-02T12:09:47;22.40;;;8.60;;
3321;SDS011;1673;51.388;7.086;2023-07-02T12:12:17;18.92;;;6.95;;
3321;SDS011;1673;51.388;7.086;2023-07-02T12:14:47;21.23;;;7.00;;
3321;SDS011;1673;51.388;7.086;2023-07-02T12:17:17;18.65;;;6.45;;
3321;SDS011;1673;51.388;7.086;2023-07-02T12:19:47;21.42;;;6.90;;
3321;SDS011;1673;51.388;7.086;2023-07-02T12:22:17;18.43;;;6.90;;
3321;SDS011;1673;51.388;7.086;2023-07-02T12:24:51;16.23;;;6.70;;
3321;SDS011;1673;51.388;7.086;2023-07-02T12:27:23;18.33;;;7.18;;
3321;SDS011;1673;51.388;7.086;2023-07-02T12:29:53;17.53;;;7.00;;
3321;SDS011;1673;51.388;7.086;2023-07-02T12:32:23;18.45;;;7.10;;
3321;SDS011;1673;51.388;7.086;2023-07-02T12:34:53;19.77;;;7.03;;
3321;SDS011;1673;51.388;7.086;2023-07-02T12:37:23;17.73;;;7.10;;
3321;SDS011;1673;51.388;7.086;2023-07-02T12:39:55;18.83;;;7.07;;
3321;SDS011;1673;51.388;7.086;2023-07-02T12:42:25;21.75;;;7.30;;
3321;SDS011;1673;51.388;7.086;2023-07-02T12:44:55;20.63;;;7.30;;
3321;SDS011;1673;51.388;7.086;2023-07-02T12:47:24;14.90;;;7.20;;
3321;SDS011;1673;51.388;7.086;2023-07-02T12:49:54;20.33;;;7.70;;
3321;SDS011;1673;51.388;7.086;2023-07-02T12:52:24;21.27;;;6.95;;
3321;SDS011;1673;51.388;7.086;2023-07-02T12:54:56;26.38;;;8.15;;
3321;SDS011;1673;51.388;7.086;2023-07-02T12:57:26;21.73;;;7.60;;
3321;SDS011;1673;51.388;7.086;2023-07-02T12:59:56;19.57;;;7.40;;
3321;SDS011;1673;51.388;7.086;2023-07-02T13:02:26;19.13;;;7.65;;
3321;SDS011;1673;51.388;7.086;2023-07-02T13:04:56;22.25;;;7.88;;
3321;SDS011;1673;51.388;7.086;2023-07-02T13:07:26;22.23;;;8.25;;
3321;SDS011;1673;51.388;7.086;2023-07-02T13:09:59;21.90;;;7.85;;
3321;SDS011;1673;51.388;7.086;2023-07-02T13:12:29;21.55;;;8.43;;
3321;SDS011;1673;51.388;7.086;2023-07-02T13:14:59;17.48;;;7.72;;
3321;SDS011;1673;51.388;7.086;2023-07-02T13:17:29;20.35;;;8.25;;
3321;SDS011;1673;51.388;7.086;2023-07-02T13:19:59;20.77;;;8.13;;
3321;SDS011;1673;51.388;7.086;2023-07-02T13:22:29;20.80;;;8.23;;
3321;SDS011;1673;51.388;7.086;2023-07-02T13:25:01;19.40;;;8.00;;
3321;SDS011;1673;51.388;7.086;2023-07-02T13:27:31;23.00;;;8.43;;
3321;SDS011;1673;51.388;7.086;2023-07-02T13:30:01;19.60;;;8.90;;
3321;SDS011;1673;51.388;7.086;2023-07-02T13:32:31;22.65;;;9.23;;
3321;SDS011;1673;51.388;7.086;2023-07-02T13:35:01;25.75;;;8.82;;
3321;SDS011;1673;51.388;7.086;2023-07-02T13:37:31;22.02;;;8.82;;
3321;SDS011;1673;51.388;7.086;2023-07-02T13:40:03;20.63;;;8.80;;
3321;SDS011;1673;51.388;7.086;2023-07-02T13:42:35;22.85;;;9.85;;
3321;SDS011;1673;51.388;7.086;2023-07-02T13:45:05;20.50;;;8.60;;
3321;SDS011;1673;51.388;7.086;2023-07-02T13:47:36;20.52;;;8.48;;
3321;SDS011;1673;51.388;7.086;2023-07-02T13:50:06;26.17;;;8.90;;
3321;SDS011;1673;51.388;7.086;2023-07-02T13:52:36;19.13;;;8.50;;
3321;SDS011;1673;51.388;7.086;2023-07-02T13:55:09;26.33;;;9.70;;
3321;SDS011;1673;51.388;7.086;2023-07-02T13:57:38;24.38;;;8.68;;
3321;SDS011;1673;51.388;7.086;2023-07-02T14:00:11;23.02;;;8.80;;
3321;SDS011;1673;51.388;7.086;2023-07-02T14:02:41;21.60;;;8.15;;
3321;SDS011;1673;51.388;7.086;2023-07-02T14:05:11;20.70;;;8.50;;
3321;SDS011;1673;51.388;7.086;2023-07-02T14:07:41;18.92;;;8.43;;
3321;SDS011;1673;51.388;7.086;2023-07-02T14:10:11;23.10;;;8.63;;
3321;SDS011;1673;51.388;7.086;2023-07-02T14:12:41;23.15;;;8.18;;
3321;SDS011;1673;51.388;7.086;2023-07-02T14:15:14;25.85;;;8.50;;
3321;SDS011;1673;51.388;7.086;2023-07-02T14:17:44;23.48;;;9.18;;
3321;SDS011;1673;51.388;7.086;2023-07-02T14:20:14;23.90;;;9.30;;
3321;SDS011;1673;51.388;7.086;2023-07-02T14:22:43;30.92;;;9.52;;
3321;SDS011;1673;51.388;7.086;2023-07-02T14:25:14;22.05;;;8.55;;
3321;SDS011;1673;51.388;7.086;2023-07-02T14:28:04;18.80;;;8.70;;
3321;SDS011;1673;51.388;7.086;2023-07-02T14:30:37;23.33;;;7.97;;
3321;SDS011;1673;51.388;7.086;2023-07-02T14:33:09;24.50;;;9.52;;
3321;SDS011;1673;51.388;7.086;2023-07-02T14:35:39;28.13;;;9.63;;
3321;SDS011;1673;51.388;7.086;2023-07-02T14:38:08;22.17;;;9.13;;
3321;SDS011;1673;51.388;7.086;2023-07-02T14:40:38;22.95;;;9.10;;
3321;SDS011;1673;51.388;7.086;2023-07-02T14:43:08;21.90;;;8.48;;
3321;SDS011;1673;51.388;7.086;2023-07-02T14:45:44;21.10;;;8.98;;
3321;SDS011;1673;51.388;7.086;2023-07-02T14:48:17;18.20;;;8.60;;
3321;SDS011;1673;51.388;7.086;2023-07-02T14:50:48;25.50;;;9.25;;
3321;SDS011;1673;51.388;7.086;2023-07-02T14:53:19;23.05;;;8.02;;
3321;SDS011;1673;51.388;7.086;2023-07-02T14:55:49;23.60;;;8.67;;
3321;SDS011;1673;51.388;7.086;2023-07-02T14:58:19;19.85;;;9.20;;
3321;SDS011;1673;51.388;7.086;2023-07-02T15:00:52;25.02;;;9.23;;
3321;SDS011;1673;51.388;7.086;2023-07-02T15:03:23;22.00;;;9.32;;
3321;SDS011;1673;51.388;7.086;2023-07-02T15:05:53;22.83;;;10.60;;
3321;SDS011;1673;51.388;7.086;2023-07-02T15:08:23;28.02;;;10.82;;
3321;SDS011;1673;51.388;7.086;2023-07-02T15:10:53;29.23;;;9.43;;
3321;SDS011;1673;51.388;7.086;2023-07-02T15:13:23;27.20;;;10.10;;
3321;SDS011;1673;51.388;7.086;2023-07-02T15:15:55;26.00;;;9.50;;
3321;SDS011;1673;51.388;7.086;2023-07-02T15:18:25;22.90;;;9.85;;